sensor_id;sensor_type;location;lat;lon;timestamp;temperature;humidity
46926;DHT22;32667;48.248;-1.700;2022-12-18T00:01:31;-0.40;76.40
46926;DHT22;32667;48.248;-1.700;2022-12-18T00:03:59;-0.40;76.40
46926;DHT22;32667;48.248;-1.700;2022-12-18T00:06:26;-0.40;76.40
46926;DHT22;32667;48.248;-1.700;2022-12-18T00:08:52;-0.40;76.40
46926;DHT22;32667;48.248;-1.700;2022-12-18T00:11:20;-0.50;76.40
46926;DHT22;32667;48.248;-1.700;2022-12-18T00:13:47;-0.50;76.50
46926;DHT22;32667;48.248;-1.700;2022-12-18T00:16:15;-0.50;76.50
46926;DHT22;32667;48.248;-1.700;2022-12-18T00:18:42;-0.50;76.50
46926;DHT22;32667;48.248;-1.700;2022-12-18T00:21:10;-0.50;76.50
46926;DHT22;32667;48.248;-1.700;2022-12-18T00:23:38;-0.50;76.50
46926;DHT22;32667;48.248;-1.700;2022-12-18T00:26:06;-0.50;76.40
46926;DHT22;32667;48.248;-1.700;2022-12-18T00:28:32;-0.50;76.40
46926;DHT22;32667;48.248;-1.700;2022-12-18T00:31:05;-0.50;76.50
46926;DHT22;32667;48.248;-1.700;2022-12-18T00:33:32;-0.50;76.50
46926;DHT22;32667;48.248;-1.700;2022-12-18T00:36:06;-0.50;76.50
46926;DHT22;32667;48.248;-1.700;2022-12-18T00:38:32;-0.50;77.10
46926;DHT22;32667;48.248;-1.700;2022-12-18T00:40:58;-0.50;76.40
46926;DHT22;32667;48.248;-1.700;2022-12-18T00:43:24;-0.50;76.40
46926;DHT22;32667;48.248;-1.700;2022-12-18T00:45:50;-0.50;76.50
46926;DHT22;32667;48.248;-1.700;2022-12-18T00:48:15;-0.50;76.60
46926;DHT22;32667;48.248;-1.700;2022-12-18T00:50:41;-0.50;76.60
46926;DHT22;32667;48.248;-1.700;2022-12-18T00:53:07;-0.50;77.10
46926;DHT22;32667;48.248;-1.700;2022-12-18T00:55:34;-0.50;76.60
46926;DHT22;32667;48.248;-1.700;2022-12-18T00:58:00;-0.50;76.50
46926;DHT22;32667;48.248;-1.700;2022-12-18T01:00:25;-0.50;76.50
46926;DHT22;32667;48.248;-1.700;2022-12-18T01:02:51;-0.60;76.40
46926;DHT22;32667;48.248;-1.700;2022-12-18T01:05:17;-0.60;76.50
46926;DHT22;32667;48.248;-1.700;2022-12-18T01:07:45;-0.60;76.60
46926;DHT22;32667;48.248;-1.700;2022-12-18T01:10:12;-0.60;76.60
46926;DHT22;32667;48.248;-1.700;2022-12-18T01:12:38;-0.60;76.60
46926;DHT22;32667;48.248;-1.700;2022-12-18T01:15:05;-0.60;76.60
46926;DHT22;32667;48.248;-1.700;2022-12-18T01:17:32;-0.60;76.60
46926;DHT22;32667;48.248;-1.700;2022-12-18T01:19:58;-0.60;76.70
46926;DHT22;32667;48.248;-1.700;2022-12-18T01:22:24;-0.60;76.70
46926;DHT22;32667;48.248;-1.700;2022-12-18T01:24:50;-0.60;76.70
46926;DHT22;32667;48.248;-1.700;2022-12-18T01:27:15;-0.70;76.70
46926;DHT22;32667;48.248;-1.700;2022-12-18T01:29:41;-0.70;76.80
46926;DHT22;32667;48.248;-1.700;2022-12-18T01:32:08;-0.70;76.70
46926;DHT22;32667;48.248;-1.700;2022-12-18T01:34:36;-0.70;76.70
46926;DHT22;32667;48.248;-1.700;2022-12-18T01:37:03;-0.60;76.80
46926;DHT22;32667;48.248;-1.700;2022-12-18T01:39:31;-0.60;76.70
46926;DHT22;32667;48.248;-1.700;2022-12-18T01:41:58;-0.60;76.70
46926;DHT22;32667;48.248;-1.700;2022-12-18T01:47:35;-0.60;76.70
46926;DHT22;32667;48.248;-1.700;2022-12-18T01:53:16;-0.70;76.70
46926;DHT22;32667;48.248;-1.700;2022-12-18T01:58:13;-0.60;76.60
46926;DHT22;32667;48.248;-1.700;2022-12-18T02:00:40;-0.60;76.50
46926;DHT22;32667;48.248;-1.700;2022-12-18T02:03:13;-0.60;76.60
46926;DHT22;32667;48.248;-1.700;2022-12-18T02:13:19;-0.60;76.50
46926;DHT22;32667;48.248;-1.700;2022-12-18T02:16:01;-0.60;76.60
46926;DHT22;32667;48.248;-1.700;2022-12-18T02:18:36;-0.60;76.50
46926;DHT22;32667;48.248;-1.700;2022-12-18T02:21:27;-0.60;76.40
46926;DHT22;32667;48.248;-1.700;2022-12-18T02:26:43;-0.60;76.60
46926;DHT22;32667;48.248;-1.700;2022-12-18T02:29:18;-0.60;76.50
46926;DHT22;32667;48.248;-1.700;2022-12-18T02:31:51;-0.60;76.40
46926;DHT22;32667;48.248;-1.700;2022-12-18T02:34:19;-0.50;77.00
46926;DHT22;32667;48.248;-1.700;2022-12-18T02:36:48;-0.50;76.40
46926;DHT22;32667;48.248;-1.700;2022-12-18T02:39:15;-0.50;76.40
46926;DHT22;32667;48.248;-1.700;2022-12-18T02:41:44;-0.50;76.30
46926;DHT22;32667;48.248;-1.700;2022-12-18T02:44:12;-0.50;76.30
46926;DHT22;32667;48.248;-1.700;2022-12-18T02:46:43;-0.40;76.40
46926;DHT22;32667;48.248;-1.700;2022-12-18T02:57:41;-0.40;76.30
46926;DHT22;32667;48.248;-1.700;2022-12-18T03:00:14;-0.40;76.40
46926;DHT22;32667;48.248;-1.700;2022-12-18T03:03:09;-0.40;76.40
46926;DHT22;32667;48.248;-1.700;2022-12-18T03:05:45;-0.40;76.30
46926;DHT22;32667;48.248;-1.700;2022-12-18T03:08:26;-0.40;76.30
46926;DHT22;32667;48.248;-1.700;2022-12-18T03:11:01;-0.40;76.40
46926;DHT22;32667;48.248;-1.700;2022-12-18T03:13:50;-0.40;76.30
46926;DHT22;32667;48.248;-1.700;2022-12-18T03:16:22;-0.40;76.40
46926;DHT22;32667;48.248;-1.700;2022-12-18T03:19:03;-0.40;76.30
46926;DHT22;32667;48.248;-1.700;2022-12-18T03:21:51;-0.40;76.30
46926;DHT22;32667;48.248;-1.700;2022-12-18T03:24:20;-0.40;76.40
46926;DHT22;32667;48.248;-1.700;2022-12-18T03:26:48;-0.40;76.50
46926;DHT22;32667;48.248;-1.700;2022-12-18T03:29:36;-0.40;76.50
46926;DHT22;32667;48.248;-1.700;2022-12-18T03:32:10;-0.40;76.50
46926;DHT22;32667;48.248;-1.700;2022-12-18T03:34:39;-0.30;76.50
46926;DHT22;32667;48.248;-1.700;2022-12-18T03:37:06;-0.30;76.40
46926;DHT22;32667;48.248;-1.700;2022-12-18T03:39:33;-0.20;76.40
46926;DHT22;32667;48.248;-1.700;2022-12-18T03:42:39;-0.20;76.20
46926;DHT22;32667;48.248;-1.700;2022-12-18T03:45:22;-0.20;76.30
46926;DHT22;32667;48.248;-1.700;2022-12-18T03:47:59;-0.20;76.20
46926;DHT22;32667;48.248;-1.700;2022-12-18T03:50:37;-0.20;76.20
46926;DHT22;32667;48.248;-1.700;2022-12-18T03:55:51;-0.20;76.20
46926;DHT22;32667;48.248;-1.700;2022-12-18T03:58:21;-0.20;76.20
46926;DHT22;32667;48.248;-1.700;2022-12-18T04:00:50;-0.20;76.20
46926;DHT22;32667;48.248;-1.700;2022-12-18T04:03:18;-0.20;76.20
46926;DHT22;32667;48.248;-1.700;2022-12-18T04:05:48;-0.20;76.20
46926;DHT22;32667;48.248;-1.700;2022-12-18T04:08:16;-0.20;76.30
46926;DHT22;32667;48.248;-1.700;2022-12-18T04:10:42;-0.10;76.30
46926;DHT22;32667;48.248;-1.700;2022-12-18T04:13:10;-0.10;76.20
46926;DHT22;32667;48.248;-1.700;2022-12-18T04:15:37;0.00;76.10
46926;DHT22;32667;48.248;-1.700;2022-12-18T04:18:03;0.00;76.10
46926;DHT22;32667;48.248;-1.700;2022-12-18T04:20:29;0.00;76.10
46926;DHT22;32667;48.248;-1.700;2022-12-18T04:22:55;0.00;76.10
46926;DHT22;32667;48.248;-1.700;2022-12-18T04:25:21;0.10;76.00
46926;DHT22;32667;48.248;-1.700;2022-12-18T04:27:47;0.10;75.90
46926;DHT22;32667;48.248;-1.700;2022-12-18T04:30:12;0.10;76.60
46926;DHT22;32667;48.248;-1.700;2022-12-18T04:32:38;0.10;76.00
46926;DHT22;32667;48.248;-1.700;2022-12-18T04:35:04;0.10;76.00
46926;DHT22;32667;48.248;-1.700;2022-12-18T04:37:32;0.10;76.10
46926;DHT22;32667;48.248;-1.700;2022-12-18T04:39:57;0.10;76.10
46926;DHT22;32667;48.248;-1.700;2022-12-18T04:42:23;0.10;76.10
46926;DHT22;32667;48.248;-1.700;2022-12-18T04:44:49;0.20;76.10
46926;DHT22;32667;48.248;-1.700;2022-12-18T04:47:15;0.20;76.10
46926;DHT22;32667;48.248;-1.700;2022-12-18T04:49:41;0.20;76.00
46926;DHT22;32667;48.248;-1.700;2022-12-18T04:52:06;0.20;76.00
46926;DHT22;32667;48.248;-1.700;2022-12-18T04:54:32;0.20;76.00
46926;DHT22;32667;48.248;-1.700;2022-12-18T04:56:58;0.20;76.00
46926;DHT22;32667;48.248;-1.700;2022-12-18T04:59:23;0.20;75.90
46926;DHT22;32667;48.248;-1.700;2022-12-18T05:01:49;0.20;76.00
46926;DHT22;32667;48.248;-1.700;2022-12-18T05:04:15;0.20;76.10
46926;DHT22;32667;48.248;-1.700;2022-12-18T05:06:41;0.20;76.10
46926;DHT22;32667;48.248;-1.700;2022-12-18T05:09:06;0.20;76.20
46926;DHT22;32667;48.248;-1.700;2022-12-18T05:11:34;0.10;76.10
46926;DHT22;32667;48.248;-1.700;2022-12-18T05:14:00;0.20;76.20
46926;DHT22;32667;48.248;-1.700;2022-12-18T05:16:28;0.20;76.20
46926;DHT22;32667;48.248;-1.700;2022-12-18T05:18:54;0.20;76.10
46926;DHT22;32667;48.248;-1.700;2022-12-18T05:21:20;0.20;76.10
46926;DHT22;32667;48.248;-1.700;2022-12-18T05:23:46;0.20;76.10
46926;DHT22;32667;48.248;-1.700;2022-12-18T05:26:17;0.20;76.10
46926;DHT22;32667;48.248;-1.700;2022-12-18T05:28:43;0.20;76.00
46926;DHT22;32667;48.248;-1.700;2022-12-18T05:31:09;0.30;76.10
46926;DHT22;32667;48.248;-1.700;2022-12-18T05:33:35;0.30;76.00
46926;DHT22;32667;48.248;-1.700;2022-12-18T05:36:05;0.30;75.90
46926;DHT22;32667;48.248;-1.700;2022-12-18T05:38:35;0.20;76.00
46926;DHT22;32667;48.248;-1.700;2022-12-18T05:41:01;0.30;76.10
46926;DHT22;32667;48.248;-1.700;2022-12-18T05:43:29;0.30;76.10
46926;DHT22;32667;48.248;-1.700;2022-12-18T05:45:55;0.30;76.10
46926;DHT22;32667;48.248;-1.700;2022-12-18T05:48:22;0.30;76.00
46926;DHT22;32667;48.248;-1.700;2022-12-18T05:50:49;0.40;76.00
46926;DHT22;32667;48.248;-1.700;2022-12-18T05:53:17;0.40;76.00
46926;DHT22;32667;48.248;-1.700;2022-12-18T05:55:43;0.40;75.90
46926;DHT22;32667;48.248;-1.700;2022-12-18T05:58:13;0.30;75.90
46926;DHT22;32667;48.248;-1.700;2022-12-18T06:00:41;0.30;76.10
46926;DHT22;32667;48.248;-1.700;2022-12-18T06:03:08;0.30;76.20
46926;DHT22;32667;48.248;-1.700;2022-12-18T06:05:39;0.30;76.20
46926;DHT22;32667;48.248;-1.700;2022-12-18T06:08:05;0.40;76.10
46926;DHT22;32667;48.248;-1.700;2022-12-18T06:10:31;0.40;76.10
46926;DHT22;32667;48.248;-1.700;2022-12-18T06:12:57;0.40;76.10
46926;DHT22;32667;48.248;-1.700;2022-12-18T06:15:23;0.40;76.10
46926;DHT22;32667;48.248;-1.700;2022-12-18T06:17:50;0.50;76.10
46926;DHT22;32667;48.248;-1.700;2022-12-18T06:20:15;0.50;76.10
46926;DHT22;32667;48.248;-1.700;2022-12-18T06:22:41;0.50;76.00
46926;DHT22;32667;48.248;-1.700;2022-12-18T06:25:08;0.60;75.90
46926;DHT22;32667;48.248;-1.700;2022-12-18T06:27:33;0.60;75.80
46926;DHT22;32667;48.248;-1.700;2022-12-18T06:30:03;0.60;75.80
46926;DHT22;32667;48.248;-1.700;2022-12-18T06:32:28;0.60;75.70
46926;DHT22;32667;48.248;-1.700;2022-12-18T06:34:54;0.70;75.80
46926;DHT22;32667;48.248;-1.700;2022-12-18T06:37:21;0.70;75.80
46926;DHT22;32667;48.248;-1.700;2022-12-18T06:39:49;0.80;75.70
46926;DHT22;32667;48.248;-1.700;2022-12-18T06:42:15;0.70;75.70
46926;DHT22;32667;48.248;-1.700;2022-12-18T06:44:40;0.70;75.70
46926;DHT22;32667;48.248;-1.700;2022-12-18T06:47:06;0.80;75.70
46926;DHT22;32667;48.248;-1.700;2022-12-18T06:49:32;0.80;75.70
46926;DHT22;32667;48.248;-1.700;2022-12-18T06:51:58;0.90;75.60
46926;DHT22;32667;48.248;-1.700;2022-12-18T06:54:23;0.90;75.60
46926;DHT22;32667;48.248;-1.700;2022-12-18T06:56:49;0.90;75.60
46926;DHT22;32667;48.248;-1.700;2022-12-18T06:59:15;0.90;75.60
46926;DHT22;32667;48.248;-1.700;2022-12-18T07:01:40;1.00;75.60
46926;DHT22;32667;48.248;-1.700;2022-12-18T07:04:06;1.00;75.50
46926;DHT22;32667;48.248;-1.700;2022-12-18T07:06:32;1.00;75.50
46926;DHT22;32667;48.248;-1.700;2022-12-18T07:08:58;1.00;75.50
46926;DHT22;32667;48.248;-1.700;2022-12-18T07:11:24;1.00;75.60
46926;DHT22;32667;48.248;-1.700;2022-12-18T07:13:49;1.00;75.60
46926;DHT22;32667;48.248;-1.700;2022-12-18T07:16:19;1.00;75.50
46926;DHT22;32667;48.248;-1.700;2022-12-18T07:18:46;1.10;75.60
46926;DHT22;32667;48.248;-1.700;2022-12-18T07:21:16;1.10;75.50
46926;DHT22;32667;48.248;-1.700;2022-12-18T07:23:42;1.20;75.50
46926;DHT22;32667;48.248;-1.700;2022-12-18T07:26:11;1.20;75.40
46926;DHT22;32667;48.248;-1.700;2022-12-18T07:28:40;1.20;75.40
46926;DHT22;32667;48.248;-1.700;2022-12-18T07:31:12;1.20;75.30
46926;DHT22;32667;48.248;-1.700;2022-12-18T07:33:37;1.30;75.30
46926;DHT22;32667;48.248;-1.700;2022-12-18T07:36:05;1.30;75.40
46926;DHT22;32667;48.248;-1.700;2022-12-18T07:38:32;1.30;75.90
46926;DHT22;32667;48.248;-1.700;2022-12-18T07:41:24;1.30;75.30
46926;DHT22;32667;48.248;-1.700;2022-12-18T07:43:49;1.30;75.30
46926;DHT22;32667;48.248;-1.700;2022-12-18T07:46:16;1.30;75.30
46926;DHT22;32667;48.248;-1.700;2022-12-18T07:48:42;1.40;75.30
46926;DHT22;32667;48.248;-1.700;2022-12-18T07:51:11;1.40;75.30
46926;DHT22;32667;48.248;-1.700;2022-12-18T07:53:38;1.40;75.30
46926;DHT22;32667;48.248;-1.700;2022-12-18T07:56:09;1.40;75.30
46926;DHT22;32667;48.248;-1.700;2022-12-18T07:58:36;1.50;75.30
46926;DHT22;32667;48.248;-1.700;2022-12-18T08:01:05;1.50;75.30
46926;DHT22;32667;48.248;-1.700;2022-12-18T08:03:31;1.50;75.20
46926;DHT22;32667;48.248;-1.700;2022-12-18T08:06:01;1.50;75.10
46926;DHT22;32667;48.248;-1.700;2022-12-18T08:08:28;1.50;75.10
46926;DHT22;32667;48.248;-1.700;2022-12-18T08:10:55;1.60;75.10
46926;DHT22;32667;48.248;-1.700;2022-12-18T08:13:21;1.60;75.10
46926;DHT22;32667;48.248;-1.700;2022-12-18T08:15:59;1.60;75.10
46926;DHT22;32667;48.248;-1.700;2022-12-18T08:18:25;1.60;75.20
46926;DHT22;32667;48.248;-1.700;2022-12-18T08:20:51;1.60;75.20
46926;DHT22;32667;48.248;-1.700;2022-12-18T08:23:17;1.60;75.10
46926;DHT22;32667;48.248;-1.700;2022-12-18T08:25:42;1.60;75.10
46926;DHT22;32667;48.248;-1.700;2022-12-18T08:28:09;1.60;75.20
46926;DHT22;32667;48.248;-1.700;2022-12-18T08:30:35;1.70;75.80
46926;DHT22;32667;48.248;-1.700;2022-12-18T08:33:02;1.70;75.20
46926;DHT22;32667;48.248;-1.700;2022-12-18T08:35:28;1.70;75.70
46926;DHT22;32667;48.248;-1.700;2022-12-18T08:37:54;1.80;75.10
46926;DHT22;32667;48.248;-1.700;2022-12-18T08:40:20;1.80;75.10
46926;DHT22;32667;48.248;-1.700;2022-12-18T08:42:45;1.80;75.10
46926;DHT22;32667;48.248;-1.700;2022-12-18T08:45:33;1.80;75.10
46926;DHT22;32667;48.248;-1.700;2022-12-18T08:47:59;1.90;75.10
46926;DHT22;32667;48.248;-1.700;2022-12-18T08:50:25;1.90;75.00
46926;DHT22;32667;48.248;-1.700;2022-12-18T08:52:51;1.90;75.10
46926;DHT22;32667;48.248;-1.700;2022-12-18T08:55:19;2.00;75.10
46926;DHT22;32667;48.248;-1.700;2022-12-18T08:57:48;2.00;75.00
46926;DHT22;32667;48.248;-1.700;2022-12-18T09:00:15;2.10;75.00
46926;DHT22;32667;48.248;-1.700;2022-12-18T09:02:41;2.10;74.90
46926;DHT22;32667;48.248;-1.700;2022-12-18T09:05:06;2.10;74.90
46926;DHT22;32667;48.248;-1.700;2022-12-18T09:07:35;2.10;74.90
46926;DHT22;32667;48.248;-1.700;2022-12-18T09:10:01;2.10;74.90
46926;DHT22;32667;48.248;-1.700;2022-12-18T09:12:27;2.20;75.00
46926;DHT22;32667;48.248;-1.700;2022-12-18T09:15:01;2.20;74.80
46926;DHT22;32667;48.248;-1.700;2022-12-18T09:17:27;2.30;75.00
46926;DHT22;32667;48.248;-1.700;2022-12-18T09:19:52;2.30;74.80
46926;DHT22;32667;48.248;-1.700;2022-12-18T09:22:21;2.30;74.80
46926;DHT22;32667;48.248;-1.700;2022-12-18T09:24:48;2.30;74.70
46926;DHT22;32667;48.248;-1.700;2022-12-18T09:27:14;2.30;74.70
46926;DHT22;32667;48.248;-1.700;2022-12-18T09:29:40;2.40;74.80
46926;DHT22;32667;48.248;-1.700;2022-12-18T09:32:05;2.40;74.70
46926;DHT22;32667;48.248;-1.700;2022-12-18T09:34:31;2.40;74.80
46926;DHT22;32667;48.248;-1.700;2022-12-18T09:36:57;2.40;74.80
46926;DHT22;32667;48.248;-1.700;2022-12-18T09:39:23;2.40;74.90
46926;DHT22;32667;48.248;-1.700;2022-12-18T09:41:57;2.40;74.90
46926;DHT22;32667;48.248;-1.700;2022-12-18T09:44:39;2.40;74.90
46926;DHT22;32667;48.248;-1.700;2022-12-18T09:47:14;2.40;74.90
46926;DHT22;32667;48.248;-1.700;2022-12-18T09:49:44;2.50;74.90
46926;DHT22;32667;48.248;-1.700;2022-12-18T09:52:18;2.50;74.80
46926;DHT22;32667;48.248;-1.700;2022-12-18T09:55:23;2.50;74.80
46926;DHT22;32667;48.248;-1.700;2022-12-18T09:57:55;2.50;74.80
46926;DHT22;32667;48.248;-1.700;2022-12-18T10:00:23;2.50;74.70
46926;DHT22;32667;48.248;-1.700;2022-12-18T10:02:52;2.50;74.80
46926;DHT22;32667;48.248;-1.700;2022-12-18T10:08:22;2.50;74.80
46926;DHT22;32667;48.248;-1.700;2022-12-18T10:10:52;2.60;74.80
46926;DHT22;32667;48.248;-1.700;2022-12-18T10:13:31;2.60;74.80
46926;DHT22;32667;48.248;-1.700;2022-12-18T10:16:08;2.60;74.80
46926;DHT22;32667;48.248;-1.700;2022-12-18T10:24:47;2.50;74.80
46926;DHT22;32667;48.248;-1.700;2022-12-18T10:27:22;2.60;74.90
46926;DHT22;32667;48.248;-1.700;2022-12-18T10:29:48;2.60;74.90
46926;DHT22;32667;48.248;-1.700;2022-12-18T10:32:17;2.60;74.80
46926;DHT22;32667;48.248;-1.700;2022-12-18T10:34:48;2.60;74.80
46926;DHT22;32667;48.248;-1.700;2022-12-18T10:37:21;2.60;74.90
46926;DHT22;32667;48.248;-1.700;2022-12-18T10:40:06;2.60;74.90
46926;DHT22;32667;48.248;-1.700;2022-12-18T10:42:33;2.60;74.80
46926;DHT22;32667;48.248;-1.700;2022-12-18T10:45:10;2.70;74.80
46926;DHT22;32667;48.248;-1.700;2022-12-18T10:47:36;2.70;74.80
46926;DHT22;32667;48.248;-1.700;2022-12-18T10:50:19;2.70;74.70
46926;DHT22;32667;48.248;-1.700;2022-12-18T10:52:59;2.70;75.30
46926;DHT22;32667;48.248;-1.700;2022-12-18T10:55:39;2.80;74.70
46926;DHT22;32667;48.248;-1.700;2022-12-18T10:58:25;2.80;74.70
46926;DHT22;32667;48.248;-1.700;2022-12-18T11:01:15;2.80;74.60
46926;DHT22;32667;48.248;-1.700;2022-12-18T11:03:45;2.90;74.60
46926;DHT22;32667;48.248;-1.700;2022-12-18T11:06:18;2.90;74.50
46926;DHT22;32667;48.248;-1.700;2022-12-18T11:09:08;2.90;74.50
46926;DHT22;32667;48.248;-1.700;2022-12-18T11:11:52;2.90;74.50
46926;DHT22;32667;48.248;-1.700;2022-12-18T11:14:33;3.00;74.60
46926;DHT22;32667;48.248;-1.700;2022-12-18T11:17:00;3.00;74.50
46926;DHT22;32667;48.248;-1.700;2022-12-18T11:19:39;3.00;74.50
46926;DHT22;32667;48.248;-1.700;2022-12-18T11:22:19;3.00;74.50
46926;DHT22;32667;48.248;-1.700;2022-12-18T11:24:54;3.00;74.50
46926;DHT22;32667;48.248;-1.700;2022-12-18T11:27:21;3.00;74.50
46926;DHT22;32667;48.248;-1.700;2022-12-18T11:29:50;3.00;74.50
46926;DHT22;32667;48.248;-1.700;2022-12-18T11:35:03;3.10;74.70
46926;DHT22;32667;48.248;-1.700;2022-12-18T11:37:29;3.10;74.60
46926;DHT22;32667;48.248;-1.700;2022-12-18T11:40:00;3.10;74.60
46926;DHT22;32667;48.248;-1.700;2022-12-18T11:45:34;3.20;74.60
46926;DHT22;32667;48.248;-1.700;2022-12-18T11:50:52;3.30;74.40
46926;DHT22;32667;48.248;-1.700;2022-12-18T11:53:19;3.30;74.40
46926;DHT22;32667;48.248;-1.700;2022-12-18T11:59:04;3.40;74.40
46926;DHT22;32667;48.248;-1.700;2022-12-18T12:12:25;3.50;74.20
46926;DHT22;32667;48.248;-1.700;2022-12-18T12:17:47;3.60;74.20
46926;DHT22;32667;48.248;-1.700;2022-12-18T12:20:18;3.60;74.20
46926;DHT22;32667;48.248;-1.700;2022-12-18T12:26:01;3.70;74.20
46926;DHT22;32667;48.248;-1.700;2022-12-18T12:37:15;3.90;74.10
46926;DHT22;32667;48.248;-1.700;2022-12-18T12:39:44;4.00;74.10
46926;DHT22;32667;48.248;-1.700;2022-12-18T12:42:20;4.00;74.00
46926;DHT22;32667;48.248;-1.700;2022-12-18T12:45:16;4.00;74.00
46926;DHT22;32667;48.248;-1.700;2022-12-18T12:47:45;4.10;74.00
46926;DHT22;32667;48.248;-1.700;2022-12-18T12:50:16;4.10;74.00
46926;DHT22;32667;48.248;-1.700;2022-12-18T12:55:21;4.20;74.00
46926;DHT22;32667;48.248;-1.700;2022-12-18T13:09:31;4.30;74.10
46926;DHT22;32667;48.248;-1.700;2022-12-18T13:12:03;4.30;74.10
46926;DHT22;32667;48.248;-1.700;2022-12-18T13:14:48;4.40;74.20
46926;DHT22;32667;48.248;-1.700;2022-12-18T13:20:11;4.40;74.10
46926;DHT22;32667;48.248;-1.700;2022-12-18T13:22:44;4.40;74.10
46926;DHT22;32667;48.248;-1.700;2022-12-18T13:25:32;4.50;74.10
46926;DHT22;32667;48.248;-1.700;2022-12-18T13:28:11;4.50;74.10
46926;DHT22;32667;48.248;-1.700;2022-12-18T13:38:36;4.60;74.20
46926;DHT22;32667;48.248;-1.700;2022-12-18T13:43:46;4.50;74.30
46926;DHT22;32667;48.248;-1.700;2022-12-18T13:46:26;4.60;74.30
46926;DHT22;32667;48.248;-1.700;2022-12-18T13:51:22;4.60;74.30
46926;DHT22;32667;48.248;-1.700;2022-12-18T13:53:51;4.60;74.30
46926;DHT22;32667;48.248;-1.700;2022-12-18T13:56:21;4.60;74.30
46926;DHT22;32667;48.248;-1.700;2022-12-18T13:59:22;4.60;74.30
46926;DHT22;32667;48.248;-1.700;2022-12-18T14:04:20;4.60;74.40
46926;DHT22;32667;48.248;-1.700;2022-12-18T14:06:47;4.70;74.30
46926;DHT22;32667;48.248;-1.700;2022-12-18T14:09:16;4.70;74.30
46926;DHT22;32667;48.248;-1.700;2022-12-18T14:11:49;4.70;74.30
46926;DHT22;32667;48.248;-1.700;2022-12-18T14:14:17;4.80;74.30
46926;DHT22;32667;48.248;-1.700;2022-12-18T14:16:43;4.80;74.30
46926;DHT22;32667;48.248;-1.700;2022-12-18T14:19:17;4.80;74.30
46926;DHT22;32667;48.248;-1.700;2022-12-18T14:21:47;4.80;74.30
46926;DHT22;32667;48.248;-1.700;2022-12-18T14:24:20;4.80;74.30
46926;DHT22;32667;48.248;-1.700;2022-12-18T14:26:48;4.80;74.30
46926;DHT22;32667;48.248;-1.700;2022-12-18T14:29:27;4.80;74.30
46926;DHT22;32667;48.248;-1.700;2022-12-18T14:32:10;4.90;74.30
46926;DHT22;32667;48.248;-1.700;2022-12-18T14:34:36;4.90;74.30
46926;DHT22;32667;48.248;-1.700;2022-12-18T14:37:03;4.90;74.80
46926;DHT22;32667;48.248;-1.700;2022-12-18T14:39:29;4.90;74.20
46926;DHT22;32667;48.248;-1.700;2022-12-18T14:41:54;4.90;74.20
46926;DHT22;32667;48.248;-1.700;2022-12-18T14:44:20;5.00;74.30
46926;DHT22;32667;48.248;-1.700;2022-12-18T14:46:48;5.00;74.20
46926;DHT22;32667;48.248;-1.700;2022-12-18T14:51:54;5.10;74.00
46926;DHT22;32667;48.248;-1.700;2022-12-18T14:54:21;5.20;74.00
46926;DHT22;32667;48.248;-1.700;2022-12-18T14:56:49;5.20;74.00
46926;DHT22;32667;48.248;-1.700;2022-12-18T14:59:20;5.30;74.00
46926;DHT22;32667;48.248;-1.700;2022-12-18T15:04:32;5.40;73.90
46926;DHT22;32667;48.248;-1.700;2022-12-18T15:07:15;5.50;73.90
46926;DHT22;32667;48.248;-1.700;2022-12-18T15:09:44;5.50;73.80
46926;DHT22;32667;48.248;-1.700;2022-12-18T15:12:32;5.60;73.80
46926;DHT22;32667;48.248;-1.700;2022-12-18T15:14:59;5.60;73.70
46926;DHT22;32667;48.248;-1.700;2022-12-18T15:17:25;5.60;73.70
46926;DHT22;32667;48.248;-1.700;2022-12-18T15:20:03;5.70;73.70
46926;DHT22;32667;48.248;-1.700;2022-12-18T15:22:36;5.70;73.70
46926;DHT22;32667;48.248;-1.700;2022-12-18T15:25:19;5.80;73.70
46926;DHT22;32667;48.248;-1.700;2022-12-18T15:27:50;5.80;73.70
46926;DHT22;32667;48.248;-1.700;2022-12-18T15:30:19;5.80;73.60
46926;DHT22;32667;48.248;-1.700;2022-12-18T15:32:45;5.90;73.70
46926;DHT22;32667;48.248;-1.700;2022-12-18T15:35:22;5.90;73.70
46926;DHT22;32667;48.248;-1.700;2022-12-18T15:37:50;6.00;73.70
46926;DHT22;32667;48.248;-1.700;2022-12-18T15:40:21;6.00;73.70
46926;DHT22;32667;48.248;-1.700;2022-12-18T15:42:48;6.00;73.70
46926;DHT22;32667;48.248;-1.700;2022-12-18T15:45:33;6.10;73.70
46926;DHT22;32667;48.248;-1.700;2022-12-18T15:47:59;6.20;73.60
46926;DHT22;32667;48.248;-1.700;2022-12-18T15:50:25;6.20;73.60
46926;DHT22;32667;48.248;-1.700;2022-12-18T15:52:52;6.20;73.50
46926;DHT22;32667;48.248;-1.700;2022-12-18T15:55:22;6.20;73.60
46926;DHT22;32667;48.248;-1.700;2022-12-18T15:58:07;6.30;73.60
46926;DHT22;32667;48.248;-1.700;2022-12-18T16:00:35;6.30;73.60
46926;DHT22;32667;48.248;-1.700;2022-12-18T16:03:02;6.30;73.50
46926;DHT22;32667;48.248;-1.700;2022-12-18T16:05:28;6.40;73.50
46926;DHT22;32667;48.248;-1.700;2022-12-18T16:07:54;6.40;73.50
46926;DHT22;32667;48.248;-1.700;2022-12-18T16:10:20;6.40;73.50
46926;DHT22;32667;48.248;-1.700;2022-12-18T16:12:47;6.50;73.60
46926;DHT22;32667;48.248;-1.700;2022-12-18T16:15:14;6.50;73.50
46926;DHT22;32667;48.248;-1.700;2022-12-18T16:17:42;6.60;73.40
46926;DHT22;32667;48.248;-1.700;2022-12-18T16:20:16;6.60;73.50
46926;DHT22;32667;48.248;-1.700;2022-12-18T16:22:43;6.70;73.50
46926;DHT22;32667;48.248;-1.700;2022-12-18T16:25:18;6.70;73.40
46926;DHT22;32667;48.248;-1.700;2022-12-18T16:27:45;6.80;73.40
46926;DHT22;32667;48.248;-1.700;2022-12-18T16:30:20;6.80;73.20
46926;DHT22;32667;48.248;-1.700;2022-12-18T16:32:46;6.90;73.20
46926;DHT22;32667;48.248;-1.700;2022-12-18T16:35:13;7.00;73.20
46926;DHT22;32667;48.248;-1.700;2022-12-18T16:37:40;7.00;73.10
46926;DHT22;32667;48.248;-1.700;2022-12-18T16:40:12;7.10;73.00
46926;DHT22;32667;48.248;-1.700;2022-12-18T16:42:39;7.20;73.00
46926;DHT22;32667;48.248;-1.700;2022-12-18T16:45:13;7.20;72.90
46926;DHT22;32667;48.248;-1.700;2022-12-18T16:47:42;7.30;72.90
46926;DHT22;32667;48.248;-1.700;2022-12-18T16:50:10;7.30;72.80
46926;DHT22;32667;48.248;-1.700;2022-12-18T16:52:39;7.30;72.80
46926;DHT22;32667;48.248;-1.700;2022-12-18T16:55:05;7.40;72.90
46926;DHT22;32667;48.248;-1.700;2022-12-18T16:57:31;7.40;72.90
46926;DHT22;32667;48.248;-1.700;2022-12-18T16:59:57;7.40;72.90
46926;DHT22;32667;48.248;-1.700;2022-12-18T17:02:27;7.50;72.90
46926;DHT22;32667;48.248;-1.700;2022-12-18T17:05:02;7.50;72.90
46926;DHT22;32667;48.248;-1.700;2022-12-18T17:07:31;7.50;72.90
46926;DHT22;32667;48.248;-1.700;2022-12-18T17:09:57;7.50;73.00
46926;DHT22;32667;48.248;-1.700;2022-12-18T17:12:25;7.50;73.00
46926;DHT22;32667;48.248;-1.700;2022-12-18T17:14:55;7.50;73.10
46926;DHT22;32667;48.248;-1.700;2022-12-18T17:17:27;7.50;73.10
46926;DHT22;32667;48.248;-1.700;2022-12-18T17:19:53;7.60;73.10
46926;DHT22;32667;48.248;-1.700;2022-12-18T17:22:20;7.60;73.10
46926;DHT22;32667;48.248;-1.700;2022-12-18T17:24:51;7.60;73.20
46926;DHT22;32667;48.248;-1.700;2022-12-18T17:27:17;7.60;73.20
46926;DHT22;32667;48.248;-1.700;2022-12-18T17:29:43;7.70;73.20
46926;DHT22;32667;48.248;-1.700;2022-12-18T17:32:08;7.70;73.20
46926;DHT22;32667;48.248;-1.700;2022-12-18T17:34:35;7.70;73.20
46926;DHT22;32667;48.248;-1.700;2022-12-18T17:37:04;7.70;73.20
46926;DHT22;32667;48.248;-1.700;2022-12-18T17:39:30;7.70;73.80